sensor_id;sensor_type;location;lat;lon;timestamp;temperature;humidity
19680;DHT22;9989;48.962;9.182;2023-06-14T00:01:47;17.30;79.40
19680;DHT22;9989;48.962;9.182;2023-06-14T00:04:12;17.30;79.60
19680;DHT22;9989;48.962;9.182;2023-06-14T00:06:39;17.30;79.90
19680;DHT22;9989;48.962;9.182;2023-06-14T00:09:05;17.30;80.10
19680;DHT22;9989;48.962;9.182;2023-06-14T00:11:31;17.30;80.00
19680;DHT22;9989;48.962;9.182;2023-06-14T00:14:00;17.30;79.80
19680;DHT22;9989;48.962;9.182;2023-06-14T00:16:26;17.20;80.10
19680;DHT22;9989;48.962;9.182;2023-06-14T00:18:51;17.20;80.30
19680;DHT22;9989;48.962;9.182;2023-06-14T00:21:17;17.20;80.40
19680;DHT22;9989;48.962;9.182;2023-06-14T00:23:43;17.10;80.60
19680;DHT22;9989;48.962;9.182;2023-06-14T00:26:09;17.10;80.90
19680;DHT22;9989;48.962;9.182;2023-06-14T00:28:34;17.00;81.00
19680;DHT22;9989;48.962;9.182;2023-06-14T00:31:00;17.00;81.20
19680;DHT22;9989;48.962;9.182;2023-06-14T00:33:26;17.00;81.50
19680;DHT22;9989;48.962;9.182;2023-06-14T00:35:51;17.00;81.70
19680;DHT22;9989;48.962;9.182;2023-06-14T00:38:19;16.90;81.70
19680;DHT22;9989;48.962;9.182;2023-06-14T00:40:45;16.90;82.00
19680;DHT22;9989;48.962;9.182;2023-06-14T00:43:11;16.80;82.50
19680;DHT22;9989;48.962;9.182;2023-06-14T00:45:36;16.80;82.90
19680;DHT22;9989;48.962;9.182;2023-06-14T00:48:03;16.80;83.20
19680;DHT22;9989;48.962;9.182;2023-06-14T00:50:31;16.80;83.40
19680;DHT22;9989;48.962;9.182;2023-06-14T00:52:59;16.80;83.50
19680;DHT22;9989;48.962;9.182;2023-06-14T00:55:25;16.70;83.40
19680;DHT22;9989;48.962;9.182;2023-06-14T00:57:51;16.70;83.70
19680;DHT22;9989;48.962;9.182;2023-06-14T01:00:20;16.70;83.90
19680;DHT22;9989;48.962;9.182;2023-06-14T01:02:45;16.70;84.10
19680;DHT22;9989;48.962;9.182;2023-06-14T01:05:12;16.70;84.00
19680;DHT22;9989;48.962;9.182;2023-06-14T01:07:51;16.70;84.30
19680;DHT22;9989;48.962;9.182;2023-06-14T01:13:16;16.70;84.70
19680;DHT22;9989;48.962;9.182;2023-06-14T01:15:44;16.60;84.90
19680;DHT22;9989;48.962;9.182;2023-06-14T01:18:13;16.50;85.40
19680;DHT22;9989;48.962;9.182;2023-06-14T01:20:46;16.50;85.70
19680;DHT22;9989;48.962;9.182;2023-06-14T01:23:20;16.40;86.10
19680;DHT22;9989;48.962;9.182;2023-06-14T01:25:47;16.40;86.40
19680;DHT22;9989;48.962;9.182;2023-06-14T01:28:15;16.40;86.40
19680;DHT22;9989;48.962;9.182;2023-06-14T01:30:44;16.30;86.50
19680;DHT22;9989;48.962;9.182;2023-06-14T01:33:15;16.30;86.90
19680;DHT22;9989;48.962;9.182;2023-06-14T01:35:43;16.20;87.20
19680;DHT22;9989;48.962;9.182;2023-06-14T01:38:10;16.20;87.60
19680;DHT22;9989;48.962;9.182;2023-06-14T01:40:36;16.20;87.80
19680;DHT22;9989;48.962;9.182;2023-06-14T01:43:03;16.20;87.80
19680;DHT22;9989;48.962;9.182;2023-06-14T01:45:30;16.20;87.80
19680;DHT22;9989;48.962;9.182;2023-06-14T01:47:56;16.10;87.90
19680;DHT22;9989;48.962;9.182;2023-06-14T01:50:22;16.10;87.70
19680;DHT22;9989;48.962;9.182;2023-06-14T01:52:47;16.10;87.90
19680;DHT22;9989;48.962;9.182;2023-06-14T01:55:13;16.10;87.70
19680;DHT22;9989;48.962;9.182;2023-06-14T01:57:39;16.10;87.80
19680;DHT22;9989;48.962;9.182;2023-06-14T02:00:05;16.00;87.80
19680;DHT22;9989;48.962;9.182;2023-06-14T02:02:40;16.00;87.90
19680;DHT22;9989;48.962;9.182;2023-06-14T02:05:06;15.90;88.20
19680;DHT22;9989;48.962;9.182;2023-06-14T02:07:33;15.90;88.30
19680;DHT22;9989;48.962;9.182;2023-06-14T02:09:59;15.80;88.50
19680;DHT22;9989;48.962;9.182;2023-06-14T02:12:25;15.70;88.90
19680;DHT22;9989;48.962;9.182;2023-06-14T02:14:51;15.60;89.30
19680;DHT22;9989;48.962;9.182;2023-06-14T02:17:16;15.50;89.80
19680;DHT22;9989;48.962;9.182;2023-06-14T02:19:42;15.50;90.20
19680;DHT22;9989;48.962;9.182;2023-06-14T02:22:08;15.40;90.40
19680;DHT22;9989;48.962;9.182;2023-06-14T02:24:34;15.30;90.50
19680;DHT22;9989;48.962;9.182;2023-06-14T02:27:01;15.30;90.60
19680;DHT22;9989;48.962;9.182;2023-06-14T02:29:27;15.20;90.80
19680;DHT22;9989;48.962;9.182;2023-06-14T02:31:53;15.20;90.90
19680;DHT22;9989;48.962;9.182;2023-06-14T02:34:18;15.30;90.80
19680;DHT22;9989;48.962;9.182;2023-06-14T02:36:45;15.30;90.70
19680;DHT22;9989;48.962;9.182;2023-06-14T02:39:13;15.30;91.10
19680;DHT22;9989;48.962;9.182;2023-06-14T02:41:38;15.30;90.80
19680;DHT22;9989;48.962;9.182;2023-06-14T02:44:07;15.30;90.80
19680;DHT22;9989;48.962;9.182;2023-06-14T02:46:32;15.30;90.70
19680;DHT22;9989;48.962;9.182;2023-06-14T02:48:59;15.30;90.80
19680;DHT22;9989;48.962;9.182;2023-06-14T02:51:24;15.20;90.80
19680;DHT22;9989;48.962;9.182;2023-06-14T02:53:50;15.20;90.90
19680;DHT22;9989;48.962;9.182;2023-06-14T02:56:16;15.20;91.00
19680;DHT22;9989;48.962;9.182;2023-06-14T02:58:44;15.20;91.10
19680;DHT22;9989;48.962;9.182;2023-06-14T03:01:11;15.10;91.20
19680;DHT22;9989;48.962;9.182;2023-06-14T03:03:38;15.10;91.30
19680;DHT22;9989;48.962;9.182;2023-06-14T03:06:04;15.10;91.30
19680;DHT22;9989;48.962;9.182;2023-06-14T03:08:36;15.20;91.40
19680;DHT22;9989;48.962;9.182;2023-06-14T03:11:04;15.20;91.40
19680;DHT22;9989;48.962;9.182;2023-06-14T03:13:31;15.20;91.40
19680;DHT22;9989;48.962;9.182;2023-06-14T03:16:00;15.20;91.50
19680;DHT22;9989;48.962;9.182;2023-06-14T03:18:29;15.20;91.60
19680;DHT22;9989;48.962;9.182;2023-06-14T03:20:56;15.20;91.70
19680;DHT22;9989;48.962;9.182;2023-06-14T03:23:23;15.20;91.70
19680;DHT22;9989;48.962;9.182;2023-06-14T03:25:49;15.30;91.70
19680;DHT22;9989;48.962;9.182;2023-06-14T03:28:14;15.20;91.80
19680;DHT22;9989;48.962;9.182;2023-06-14T03:30:40;15.20;92.00
19680;DHT22;9989;48.962;9.182;2023-06-14T03:33:06;15.30;92.20
19680;DHT22;9989;48.962;9.182;2023-06-14T03:35:31;15.30;92.00
19680;DHT22;9989;48.962;9.182;2023-06-14T03:37:57;15.20;92.00
19680;DHT22;9989;48.962;9.182;2023-06-14T03:40:23;15.20;92.10
19680;DHT22;9989;48.962;9.182;2023-06-14T03:42:55;15.20;92.10
19680;DHT22;9989;48.962;9.182;2023-06-14T03:45:21;15.20;92.40
19680;DHT22;9989;48.962;9.182;2023-06-14T03:47:47;15.20;92.40
19680;DHT22;9989;48.962;9.182;2023-06-14T03:50:13;15.20;92.50
19680;DHT22;9989;48.962;9.182;2023-06-14T03:52:41;15.20;92.60
19680;DHT22;9989;48.962;9.182;2023-06-14T03:55:09;15.10;92.50
19680;DHT22;9989;48.962;9.182;2023-06-14T03:57:35;15.10;92.70
19680;DHT22;9989;48.962;9.182;2023-06-14T04:00:01;15.10;92.40
19680;DHT22;9989;48.962;9.182;2023-06-14T04:02:30;15.00;92.50
19680;DHT22;9989;48.962;9.182;2023-06-14T04:04:55;15.00;92.70
19680;DHT22;9989;48.962;9.182;2023-06-14T04:07:21;15.00;92.90
19680;DHT22;9989;48.962;9.182;2023-06-14T04:09:49;15.00;93.20
19680;DHT22;9989;48.962;9.182;2023-06-14T04:12:14;14.90;93.10
19680;DHT22;9989;48.962;9.182;2023-06-14T04:14:40;15.00;93.00
19680;DHT22;9989;48.962;9.182;2023-06-14T04:17:06;15.00;93.00
19680;DHT22;9989;48.962;9.182;2023-06-14T04:19:32;15.00;93.00
19680;DHT22;9989;48.962;9.182;2023-06-14T04:21:58;15.00;93.00
19680;DHT22;9989;48.962;9.182;2023-06-14T04:24:26;15.10;93.30
19680;DHT22;9989;48.962;9.182;2023-06-14T04:26:58;15.10;93.40
19680;DHT22;9989;48.962;9.182;2023-06-14T04:29:25;15.20;93.20
19680;DHT22;9989;48.962;9.182;2023-06-14T04:31:54;15.30;93.10
19680;DHT22;9989;48.962;9.182;2023-06-14T04:34:20;15.30;93.10
19680;DHT22;9989;48.962;9.182;2023-06-14T04:36:49;15.40;93.20
19680;DHT22;9989;48.962;9.182;2023-06-14T04:39:16;15.40;93.70
19680;DHT22;9989;48.962;9.182;2023-06-14T04:41:43;15.50;94.10
19680;DHT22;9989;48.962;9.182;2023-06-14T04:44:09;15.60;94.40
19680;DHT22;9989;48.962;9.182;2023-06-14T04:46:36;15.70;94.40
19680;DHT22;9989;48.962;9.182;2023-06-14T04:49:17;15.70;94.40
19680;DHT22;9989;48.962;9.182;2023-06-14T04:51:44;15.80;94.40
19680;DHT22;9989;48.962;9.182;2023-06-14T04:54:10;15.90;94.50
19680;DHT22;9989;48.962;9.182;2023-06-14T04:56:39;15.90;94.40
19680;DHT22;9989;48.962;9.182;2023-06-14T04:59:05;16.00;94.30
19680;DHT22;9989;48.962;9.182;2023-06-14T05:01:31;16.10;94.20
19680;DHT22;9989;48.962;9.182;2023-06-14T05:03:59;16.20;94.20
19680;DHT22;9989;48.962;9.182;2023-06-14T05:06:25;16.30;94.10
19680;DHT22;9989;48.962;9.182;2023-06-14T05:08:53;16.30;93.80
19680;DHT22;9989;48.962;9.182;2023-06-14T05:11:18;16.30;93.80
19680;DHT22;9989;48.962;9.182;2023-06-14T05:13:44;16.40;93.80
19680;DHT22;9989;48.962;9.182;2023-06-14T05:16:11;16.40;93.90
19680;DHT22;9989;48.962;9.182;2023-06-14T05:18:37;16.50;94.00
19680;DHT22;9989;48.962;9.182;2023-06-14T05:21:03;16.60;93.90
19680;DHT22;9989;48.962;9.182;2023-06-14T05:23:30;16.70;93.90
19680;DHT22;9989;48.962;9.182;2023-06-14T05:25:56;16.90;93.60
19680;DHT22;9989;48.962;9.182;2023-06-14T05:28:22;16.90;93.50
19680;DHT22;9989;48.962;9.182;2023-06-14T05:30:48;17.00;93.30
19680;DHT22;9989;48.962;9.182;2023-06-14T05:33:13;17.10;93.20
19680;DHT22;9989;48.962;9.182;2023-06-14T05:35:39;17.20;93.40
19680;DHT22;9989;48.962;9.182;2023-06-14T05:38:05;17.30;93.20
19680;DHT22;9989;48.962;9.182;2023-06-14T05:40:31;17.40;93.10
19680;DHT22;9989;48.962;9.182;2023-06-14T05:42:56;17.40;93.00
19680;DHT22;9989;48.962;9.182;2023-06-14T05:45:22;17.50;92.80
19680;DHT22;9989;48.962;9.182;2023-06-14T05:47:48;17.60;92.60
19680;DHT22;9989;48.962;9.182;2023-06-14T05:50:13;17.70;92.60
19680;DHT22;9989;48.962;9.182;2023-06-14T05:52:39;17.80;92.40
19680;DHT22;9989;48.962;9.182;2023-06-14T05:55:05;17.90;92.20
19680;DHT22;9989;48.962;9.182;2023-06-14T05:57:31;17.90;92.10
19680;DHT22;9989;48.962;9.182;2023-06-14T05:59:59;18.00;91.70
19680;DHT22;9989;48.962;9.182;2023-06-14T06:02:25;18.00;91.40
19680;DHT22;9989;48.962;9.182;2023-06-14T06:04:51;18.10;91.40
19680;DHT22;9989;48.962;9.182;2023-06-14T06:07:16;18.10;91.10
19680;DHT22;9989;48.962;9.182;2023-06-14T06:09:42;18.20;91.10
19680;DHT22;9989;48.962;9.182;2023-06-14T06:12:08;18.20;91.10
19680;DHT22;9989;48.962;9.182;2023-06-14T06:14:34;18.30;91.30
19680;DHT22;9989;48.962;9.182;2023-06-14T06:17:00;18.40;91.10
19680;DHT22;9989;48.962;9.182;2023-06-14T06:19:25;18.50;90.50
19680;DHT22;9989;48.962;9.182;2023-06-14T06:21:51;18.60;90.00
19680;DHT22;9989;48.962;9.182;2023-06-14T06:24:17;18.80;89.20
19680;DHT22;9989;48.962;9.182;2023-06-14T06:26:42;18.90;88.80
19680;DHT22;9989;48.962;9.182;2023-06-14T06:29:08;19.00;88.10
19680;DHT22;9989;48.962;9.182;2023-06-14T06:31:33;19.20;87.00
19680;DHT22;9989;48.962;9.182;2023-06-14T06:33:59;19.40;86.20
19680;DHT22;9989;48.962;9.182;2023-06-14T06:36:25;19.60;85.50
19680;DHT22;9989;48.962;9.182;2023-06-14T06:38:51;19.70;84.70
19680;DHT22;9989;48.962;9.182;2023-06-14T06:41:16;19.80;84.40
19680;DHT22;9989;48.962;9.182;2023-06-14T06:43:42;19.90;84.50
19680;DHT22;9989;48.962;9.182;2023-06-14T06:46:08;19.90;84.30
19680;DHT22;9989;48.962;9.182;2023-06-14T06:48:33;20.00;84.20
19680;DHT22;9989;48.962;9.182;2023-06-14T06:50:59;20.00;83.80
19680;DHT22;9989;48.962;9.182;2023-06-14T06:53:25;20.00;84.00
19680;DHT22;9989;48.962;9.182;2023-06-14T06:55:50;20.10;83.40
19680;DHT22;9989;48.962;9.182;2023-06-14T06:58:16;20.10;83.80
19680;DHT22;9989;48.962;9.182;2023-06-14T07:00:45;20.10;83.30
19680;DHT22;9989;48.962;9.182;2023-06-14T07:03:12;20.20;84.50
19680;DHT22;9989;48.962;9.182;2023-06-14T07:05:37;20.30;83.50
19680;DHT22;9989;48.962;9.182;2023-06-14T07:08:03;20.30;83.20
19680;DHT22;9989;48.962;9.182;2023-06-14T07:10:29;20.40;83.10
19680;DHT22;9989;48.962;9.182;2023-06-14T07:12:54;20.40;82.20
19680;DHT22;9989;48.962;9.182;2023-06-14T07:15:20;20.60;82.20
19680;DHT22;9989;48.962;9.182;2023-06-14T07:17:46;20.60;80.80
19680;DHT22;9989;48.962;9.182;2023-06-14T07:20:12;20.60;80.90
19680;DHT22;9989;48.962;9.182;2023-06-14T07:22:42;20.70;81.20
19680;DHT22;9989;48.962;9.182;2023-06-14T07:25:09;20.80;81.90
19680;DHT22;9989;48.962;9.182;2023-06-14T07:27:37;20.90;82.40
19680;DHT22;9989;48.962;9.182;2023-06-14T07:30:03;20.90;82.40
19680;DHT22;9989;48.962;9.182;2023-06-14T07:32:29;21.00;82.10
19680;DHT22;9989;48.962;9.182;2023-06-14T07:34:55;21.10;80.50
19680;DHT22;9989;48.962;9.182;2023-06-14T07:37:20;21.20;81.00
19680;DHT22;9989;48.962;9.182;2023-06-14T07:39:46;21.30;81.20
19680;DHT22;9989;48.962;9.182;2023-06-14T07:42:12;21.30;81.20
19680;DHT22;9989;48.962;9.182;2023-06-14T07:44:37;21.40;80.30
19680;DHT22;9989;48.962;9.182;2023-06-14T07:47:03;21.50;79.50
19680;DHT22;9989;48.962;9.182;2023-06-14T07:49:29;21.60;80.20
19680;DHT22;9989;48.962;9.182;2023-06-14T07:51:54;21.70;80.10
19680;DHT22;9989;48.962;9.182;2023-06-14T07:54:20;21.70;80.00
19680;DHT22;9989;48.962;9.182;2023-06-14T07:56:50;21.70;79.80
19680;DHT22;9989;48.962;9.182;2023-06-14T07:59:16;21.80;78.90
19680;DHT22;9989;48.962;9.182;2023-06-14T08:01:42;21.90;79.20
19680;DHT22;9989;48.962;9.182;2023-06-14T08:04:12;22.00;79.90
19680;DHT22;9989;48.962;9.182;2023-06-14T08:06:38;22.10;78.50
19680;DHT22;9989;48.962;9.182;2023-06-14T08:09:04;22.20;78.60
19680;DHT22;9989;48.962;9.182;2023-06-14T08:11:31;22.20;77.50
19680;DHT22;9989;48.962;9.182;2023-06-14T08:13:56;22.30;77.90
19680;DHT22;9989;48.962;9.182;2023-06-14T08:16:22;22.30;78.10
19680;DHT22;9989;48.962;9.182;2023-06-14T08:18:48;22.40;78.40
19680;DHT22;9989;48.962;9.182;2023-06-14T08:21:14;22.50;78.90
19680;DHT22;9989;48.962;9.182;2023-06-14T08:23:46;22.60;76.10
19680;DHT22;9989;48.962;9.182;2023-06-14T08:26:11;22.60;76.50
19680;DHT22;9989;48.962;9.182;2023-06-14T08:28:37;22.60;77.10
19680;DHT22;9989;48.962;9.182;2023-06-14T08:31:03;22.70;75.90
19680;DHT22;9989;48.962;9.182;2023-06-14T08:33:28;22.70;75.00
19680;DHT22;9989;48.962;9.182;2023-06-14T08:35:54;22.80;76.20
19680;DHT22;9989;48.962;9.182;2023-06-14T08:38:20;22.80;74.70
19680;DHT22;9989;48.962;9.182;2023-06-14T08:40:50;22.90;74.70
19680;DHT22;9989;48.962;9.182;2023-06-14T08:43:17;23.00;75.50
19680;DHT22;9989;48.962;9.182;2023-06-14T08:45:48;23.10;75.10
19680;DHT22;9989;48.962;9.182;2023-06-14T08:48:14;23.20;73.60
19680;DHT22;9989;48.962;9.182;2023-06-14T08:50:43;23.20;73.90
19680;DHT22;9989;48.962;9.182;2023-06-14T08:53:13;23.40;74.10
19680;DHT22;9989;48.962;9.182;2023-06-14T08:55:45;23.40;74.90
19680;DHT22;9989;48.962;9.182;2023-06-14T08:58:11;23.50;73.10
19680;DHT22;9989;48.962;9.182;2023-06-14T09:00:40;23.60;72.20
19680;DHT22;9989;48.962;9.182;2023-06-14T09:03:08;23.70;72.30
19680;DHT22;9989;48.962;9.182;2023-06-14T09:05:38;23.80;71.50
19680;DHT22;9989;48.962;9.182;2023-06-14T09:08:05;23.80;71.80
19680;DHT22;9989;48.962;9.182;2023-06-14T09:10:31;23.90;72.10
19680;DHT22;9989;48.962;9.182;2023-06-14T09:13:01;24.00;72.50
19680;DHT22;9989;48.962;9.182;2023-06-14T09:15:27;24.20;70.90
19680;DHT22;9989;48.962;9.182;2023-06-14T09:17:53;24.30;71.30
19680;DHT22;9989;48.962;9.182;2023-06-14T09:20:19;24.30;70.90
19680;DHT22;9989;48.962;9.182;2023-06-14T09:22:45;24.40;70.80
19680;DHT22;9989;48.962;9.182;2023-06-14T09:25:13;24.50;68.90
19680;DHT22;9989;48.962;9.182;2023-06-14T09:27:41;24.60;69.70
19680;DHT22;9989;48.962;9.182;2023-06-14T09:30:09;24.70;68.20
19680;DHT22;9989;48.962;9.182;2023-06-14T09:32:39;24.80;68.90
19680;DHT22;9989;48.962;9.182;2023-06-14T09:35:09;24.90;69.50
19680;DHT22;9989;48.962;9.182;2023-06-14T09:37:35;25.00;68.70
19680;DHT22;9989;48.962;9.182;2023-06-14T09:40:03;25.00;66.30
19680;DHT22;9989;48.962;9.182;2023-06-14T09:42:29;25.00;66.80
19680;DHT22;9989;48.962;9.182;2023-06-14T09:44:56;25.10;64.60
19680;DHT22;9989;48.962;9.182;2023-06-14T09:47:25;25.30;64.30
19680;DHT22;9989;48.962;9.182;2023-06-14T09:49:51;25.30;61.20
19680;DHT22;9989;48.962;9.182;2023-06-14T09:52:21;25.40;62.20
19680;DHT22;9989;48.962;9.182;2023-06-14T09:54:49;25.50;63.50
19680;DHT22;9989;48.962;9.182;2023-06-14T09:57:16;25.60;63.90
19680;DHT22;9989;48.962;9.182;2023-06-14T09:59:47;25.70;61.50
19680;DHT22;9989;48.962;9.182;2023-06-14T10:02:25;25.80;59.50
19680;DHT22;9989;48.962;9.182;2023-06-14T10:05:07;25.90;56.50
19680;DHT22;9989;48.962;9.182;2023-06-14T10:10:08;26.10;55.40
19680;DHT22;9989;48.962;9.182;2023-06-14T10:12:34;26.20;56.50
19680;DHT22;9989;48.962;9.182;2023-06-14T10:15:00;26.30;56.40
19680;DHT22;9989;48.962;9.182;2023-06-14T10:20:35;26.40;57.40
19680;DHT22;9989;48.962;9.182;2023-06-14T10:23:19;26.50;57.70
19680;DHT22;9989;48.962;9.182;2023-06-14T10:25:45;26.60;56.10
19680;DHT22;9989;48.962;9.182;2023-06-14T10:28:19;26.60;53.20
19680;DHT22;9989;48.962;9.182;2023-06-14T10:31:17;26.70;54.40
19680;DHT22;9989;48.962;9.182;2023-06-14T10:33:50;26.80;53.80
19680;DHT22;9989;48.962;9.182;2023-06-14T10:36:30;26.80;54.80
19680;DHT22;9989;48.962;9.182;2023-06-14T10:39:14;26.90;55.10
19680;DHT22;9989;48.962;9.182;2023-06-14T10:41:41;26.90;55.40
19680;DHT22;9989;48.962;9.182;2023-06-14T10:46:49;27.00;54.50
19680;DHT22;9989;48.962;9.182;2023-06-14T10:49:38;27.10;54.00
19680;DHT22;9989;48.962;9.182;2023-06-14T10:52:08;27.10;52.50
19680;DHT22;9989;48.962;9.182;2023-06-14T10:54:37;27.20;52.40
19680;DHT22;9989;48.962;9.182;2023-06-14T10:57:06;27.30;54.60
19680;DHT22;9989;48.962;9.182;2023-06-14T10:59:33;27.40;53.60
19680;DHT22;9989;48.962;9.182;2023-06-14T11:03:15;27.50;52.60
19680;DHT22;9989;48.962;9.182;2023-06-14T11:05:25;27.60;53.10
19680;DHT22;9989;48.962;9.182;2023-06-14T11:10:44;27.80;53.10
19680;DHT22;9989;48.962;9.182;2023-06-14T11:13:13;27.90;52.90
19680;DHT22;9989;48.962;9.182;2023-06-14T11:15:44;28.00;53.10
19680;DHT22;9989;48.962;9.182;2023-06-14T11:18:13;28.10;52.70
19680;DHT22;9989;48.962;9.182;2023-06-14T11:20:39;28.10;50.80
19680;DHT22;9989;48.962;9.182;2023-06-14T11:23:05;28.10;52.10
19680;DHT22;9989;48.962;9.182;2023-06-14T11:25:31;28.20;52.70
19680;DHT22;9989;48.962;9.182;2023-06-14T11:27:57;28.20;52.00
19680;DHT22;9989;48.962;9.182;2023-06-14T11:30:24;28.40;51.50
19680;DHT22;9989;48.962;9.182;2023-06-14T11:32:51;28.40;52.00
19680;DHT22;9989;48.962;9.182;2023-06-14T11:35:18;28.40;51.40
19680;DHT22;9989;48.962;9.182;2023-06-14T11:37:44;28.30;50.60
19680;DHT22;9989;48.962;9.182;2023-06-14T11:40:11;28.20;51.10
19680;DHT22;9989;48.962;9.182;2023-06-14T11:42:39;28.00;51.40
19680;DHT22;9989;48.962;9.182;2023-06-14T11:45:08;27.80;51.30
19680;DHT22;9989;48.962;9.182;2023-06-14T11:47:38;27.70;52.10
19680;DHT22;9989;48.962;9.182;2023-06-14T11:50:07;27.70;53.80
19680;DHT22;9989;48.962;9.182;2023-06-14T11:52:34;27.80;53.30
19680;DHT22;9989;48.962;9.182;2023-06-14T11:54:59;27.90;50.60
19680;DHT22;9989;48.962;9.182;2023-06-14T11:57:26;27.90;51.60
19680;DHT22;9989;48.962;9.182;2023-06-14T11:59:52;28.00;52.70
19680;DHT22;9989;48.962;9.182;2023-06-14T12:02:21;28.00;52.90
19680;DHT22;9989;48.962;9.182;2023-06-14T12:04:49;28.20;52.70
19680;DHT22;9989;48.962;9.182;2023-06-14T12:07:17;28.20;52.20
19680;DHT22;9989;48.962;9.182;2023-06-14T12:12:25;28.40;51.60
19680;DHT22;9989;48.962;9.182;2023-06-14T12:14:52;28.30;51.10
19680;DHT22;9989;48.962;9.182;2023-06-14T12:17:18;28.20;51.30
19680;DHT22;9989;48.962;9.182;2023-06-14T12:19:46;28.20;51.10
19680;DHT22;9989;48.962;9.182;2023-06-14T12:22:15;28.00;50.60
19680;DHT22;9989;48.962;9.182;2023-06-14T12:24:45;27.90;51.60
19680;DHT22;9989;48.962;9.182;2023-06-14T12:27:11;28.00;53.20
19680;DHT22;9989;48.962;9.182;2023-06-14T12:29:42;28.10;53.50
19680;DHT22;9989;48.962;9.182;2023-06-14T12:32:10;28.30;52.70
19680;DHT22;9989;48.962;9.182;2023-06-14T12:34:36;28.60;52.20
19680;DHT22;9989;48.962;9.182;2023-06-14T12:37:03;28.70;52.10
19680;DHT22;9989;48.962;9.182;2023-06-14T12:39:31;28.80;51.10
19680;DHT22;9989;48.962;9.182;2023-06-14T12:41:58;28.90;50.10
19680;DHT22;9989;48.962;9.182;2023-06-14T12:44:24;28.90;50.10
19680;DHT22;9989;48.962;9.182;2023-06-14T12:46:50;28.90;51.10
19680;DHT22;9989;48.962;9.182;2023-06-14T12:49:18;28.80;49.20
19680;DHT22;9989;48.962;9.182;2023-06-14T12:51:45;28.60;49.90
19680;DHT22;9989;48.962;9.182;2023-06-14T12:54:11;28.50;51.80
19680;DHT22;9989;48.962;9.182;2023-06-14T12:56:37;28.60;53.40
19680;DHT22;9989;48.962;9.182;2023-06-14T12:59:03;28.70;53.10
19680;DHT22;9989;48.962;9.182;2023-06-14T13:01:28;28.70;51.70
19680;DHT22;9989;48.962;9.182;2023-06-14T13:03:54;28.60;51.60
19680;DHT22;9989;48.962;9.182;2023-06-14T13:06:23;28.40;51.10
19680;DHT22;9989;48.962;9.182;2023-06-14T13:08:49;28.20;51.40
19680;DHT22;9989;48.962;9.182;2023-06-14T13:11:15;28.00;51.70
19680;DHT22;9989;48.962;9.182;2023-06-14T13:13:41;27.80;51.60
19680;DHT22;9989;48.962;9.182;2023-06-14T13:16:07;27.70;51.60
19680;DHT22;9989;48.962;9.182;2023-06-14T13:18:33;27.70;52.60
19680;DHT22;9989;48.962;9.182;2023-06-14T13:20:58;27.70;52.70
19680;DHT22;9989;48.962;9.182;2023-06-14T13:23:27;27.70;52.60
19680;DHT22;9989;48.962;9.182;2023-06-14T13:25:53;27.60;51.80
19680;DHT22;9989;48.962;9.182;2023-06-14T13:28:18;27.60;52.10
19680;DHT22;9989;48.962;9.182;2023-06-14T13:30:49;27.70;53.10
19680;DHT22;9989;48.962;9.182;2023-06-14T13:33:15;27.80;53.40
19680;DHT22;9989;48.962;9.182;2023-06-14T13:35:40;27.90;53.30
19680;DHT22;9989;48.962;9.182;2023-06-14T13:38:06;28.10;53.00
19680;DHT22;9989;48.962;9.182;2023-06-14T13:40:31;28.30;52.60
19680;DHT22;9989;48.962;9.182;2023-06-14T13:42:57;28.30;53.10
19680;DHT22;9989;48.962;9.182;2023-06-14T13:45:23;28.40;52.90
19680;DHT22;9989;48.962;9.182;2023-06-14T13:47:48;28.40;52.30
19680;DHT22;9989;48.962;9.182;2023-06-14T13:50:14;28.50;52.60
19680;DHT22;9989;48.962;9.182;2023-06-14T13:52:43;28.40;52.10
19680;DHT22;9989;48.962;9.182;2023-06-14T13:55:09;28.30;52.60
19680;DHT22;9989;48.962;9.182;2023-06-14T13:57:35;28.30;52.30
19680;DHT22;9989;48.962;9.182;2023-06-14T14:00:00;28.20;52.50
19680;DHT22;9989;48.962;9.182;2023-06-14T14:02:28;28.20;52.70
19680;DHT22;9989;48.962;9.182;2023-06-14T14:04:55;28.30;52.50
19680;DHT22;9989;48.962;9.182;2023-06-14T14:07:21;28.30;52.50
19680;DHT22;9989;48.962;9.182;2023-06-14T14:09:47;28.30;51.90
19680;DHT22;9989;48.962;9.182;2023-06-14T14:12:13;28.40;52.30
19680;DHT22;9989;48.962;9.182;2023-06-14T14:14:39;28.40;52.80
19680;DHT22;9989;48.962;9.182;2023-06-14T14:17:05;28.40;51.30
19680;DHT22;9989;48.962;9.182;2023-06-14T14:19:32;28.40;52.00
19680;DHT22;9989;48.962;9.182;2023-06-14T14:21:58;28.50;50.80
19680;DHT22;9989;48.962;9.182;2023-06-14T14:24:23;28.50;52.30
19680;DHT22;9989;48.962;9.182;2023-06-14T14:26:49;28.60;52.30
19680;DHT22;9989;48.962;9.182;2023-06-14T14:29:16;28.70;50.50
19680;DHT22;9989;48.962;9.182;2023-06-14T14:31:42;28.70;50.60
19680;DHT22;9989;48.962;9.182;2023-06-14T14:34:08;28.70;52.40
19680;DHT22;9989;48.962;9.182;2023-06-14T14:36:33;28.70;50.80
19680;DHT22;9989;48.962;9.182;2023-06-14T14:39:05;28.80;50.60
19680;DHT22;9989;48.962;9.182;2023-06-14T14:41:32;28.80;50.30
19680;DHT22;9989;48.962;9.182;2023-06-14T14:43:58;28.90;50.50
19680;DHT22;9989;48.962;9.182;2023-06-14T14:46:24;28.80;51.10
19680;DHT22;9989;48.962;9.182;2023-06-14T14:48:50;28.80;50.20
19680;DHT22;9989;48.962;9.182;2023-06-14T14:51:16;28.70;50.40
19680;DHT22;9989;48.962;9.182;2023-06-14T14:53:41;28.60;50.80
19680;DHT22;9989;48.962;9.182;2023-06-14T14:56:07;28.50;50.70
19680;DHT22;9989;48.962;9.182;2023-06-14T14:58:33;28.40;50.90
19680;DHT22;9989;48.962;9.182;2023-06-14T15:00:58;28.30;50.50
19680;DHT22;9989;48.962;9.182;2023-06-14T15:03:24;28.30;50.50
19680;DHT22;9989;48.962;9.182;2023-06-14T15:05:49;28.30;50.80
19680;DHT22;9989;48.962;9.182;2023-06-14T15:08:15;28.40;51.50
19680;DHT22;9989;48.962;9.182;2023-06-14T15:10:41;28.40;51.80
19680;DHT22;9989;48.962;9.182;2023-06-14T15:13:07;28.60;50.80
19680;DHT22;9989;48.962;9.182;2023-06-14T15:15:34;28.60;51.80
19680;DHT22;9989;48.962;9.182;2023-06-14T15:18:00;28.60;51.30
19680;DHT22;9989;48.962;9.182;2023-06-14T15:20:26;28.60;51.00
19680;DHT22;9989;48.962;9.182;2023-06-14T15:22:52;28.40;51.00
19680;DHT22;9989;48.962;9.182;2023-06-14T15:25:18;28.40;51.00
19680;DHT22;9989;48.962;9.182;2023-06-14T15:27:45;28.20;50.80
19680;DHT22;9989;48.962;9.182;2023-06-14T15:30:11;28.10;50.70
19680;DHT22;9989;48.962;9.182;2023-06-14T15:32:39;27.90;51.10
19680;DHT22;9989;48.962;9.182;2023-06-14T15:35:05;27.90;51.30
19680;DHT22;9989;48.962;9.182;2023-06-14T15:37:31;27.80;51.90
19680;DHT22;9989;48.962;9.182;2023-06-14T15:39:56;27.80;52.40
19680;DHT22;9989;48.962;9.182;2023-06-14T15:42:22;27.80;52.40
19680;DHT22;9989;48.962;9.182;2023-06-14T15:44:48;27.80;52.00
19680;DHT22;9989;48.962;9.182;2023-06-14T15:47:13;27.90;51.80
19680;DHT22;9989;48.962;9.182;2023-06-14T15:49:39;27.80;51.60
19680;DHT22;9989;48.962;9.182;2023-06-14T15:52:05;27.80;51.70
19680;DHT22;9989;48.962;9.182;2023-06-14T15:54:31;27.80;51.40
19680;DHT22;9989;48.962;9.182;2023-06-14T15:56:57;27.70;51.40
19680;DHT22;9989;48.962;9.182;2023-06-14T15:59:23;27.70;51.40
19680;DHT22;9989;48.962;9.182;2023-06-14T16:01:49;27.70;52.20